Soaring Guidance
Issued by NWS Reno, NV

Home | Current Version | Previous Version | Text Only | Print | Product List | Glossary On
Versions: 1 2 3 4 5 6 7 8 9 10 11
000
UXUS97 KREV 061346
SRGREV

SOARING FORECAST
NATIONAL WEATHER SERVICE - RENO NV
700 AM PDT MON JUL 6 2015

THIS SOARING FORECAST IS FOR THE EASTERN SIERRA AND WESTERN NEVADA
WITH SPECIFIC INDICES FOR THE GREATER RENO AREA.

THIS FORECAST IS PREPARED DAILY BY 700 AM AND IS NOT UPDATED.

FOR CURRENT FLIGHT CONDITIONS...FORECASTS...AND ADVISORIES...ACCESS
YOUR LOCAL BRIEFING OUTLET OR FLIGHT SERVICE STATION.

*******************************************************************
FORECASTED LOCAL INDICES FOR RENO:        TODAY     YESTERDAY
FORECASTED MAX TEMP AT RENO (DEG F).....     92          83
FORECASTED TRIGGER TEMPERATURE (DEG F)..     79          75
   EXCEEDED YESTERDAY BY 1055 AM PDT
FORECASTED MAXIMUM ALTITUDE (FT MSL)....  17300       17500
FORECASTED SOARING INDEX (FPM)..........   1149        1095
FORECASTED K-INDEX.........VALID 18Z....     28          32
FORECASTED K-INDEX.........VALID 00Z....     34          33
FORECASTED LIFTED INDEX....VALID 18Z....      2          -1
FORECASTED LIFTED INDEX....VALID 00Z....      0           0

AFTERNOON WINDS ALOFT FORECAST
MSL (FT) WIND/TEMP
9000  9900/+16
10000 9900/+13
12000 9900/+07
14000 9902/+01
16000 9904/-04
18000 1211/-10
24000 1614/-20
30000 1815/-36
34000 2017/-46
39000 1820/-58

SLIDE MOUNTAIN DATA:
     DATE       TIME     TEMP  DEWPT   RH         WIND (MPH)
                        (F)   (F)           | DIR  SPEED GUST
2015-07-06    05:50      52    37     58    | 155   13   16
2015-07-06    05:30      52    37     60    | 170   10   14
2015-07-06    05:20      52    37     58    | 170    9   12
2015-07-06    05:00      52    37     57    | 161    8   12

RENO TAF FORECAST:
KRNO 061121Z 0612/0712 VRB03KT P6SM FEW100 SCT200
     FM062200 VRB04KT P6SM VCSH SCT080 BKN120
     FM070200 30008KT P6SM SCT100 BKN150
     FM070800 VRB04KT P6SM FEW100 SCT150 BKN200

CARSON CITY TAF FORECAST:
KCXP 061121Z 0612/0712 VRB04KT P6SM FEW100 SCT200
     FM061900 08008KT P6SM FEW080 SCT120
     FM062100 11008KT P6SM VCSH SCT080 BKN120
     FM070100 27008KT P6SM SCT100 BKN150
     FM070500 VRB04KT P6SM FEW100 SCT150 BKN200

OUTLOOK FOR THE RENO-CARSON CITY-MINDEN AREA:
.TUESDAY...PARTLY CLOUDY WITH ISOLATED SHOWERS IN THE MORNING...
THEN MOSTLY CLOUDY WITH SCATTERED SHOWERS AND THUNDERSTORMS IN
THE AFTERNOON. HIGHS 84 TO 89. NORTHWEST WINDS UP TO 10 MPH IN
THE MORNING BECOMING LIGHT.

SUNRISE AND SUNSET
JULY  6 2015..........SUNRISE   538 AM PDT   SUNSET   829 PM PDT
JULY  7 2015..........SUNRISE   539 AM PDT   SUNSET   829 PM PDT


USA.gov is the U.S. government's official web portal to all federal, state and local government web resources and services.